createdAt,value
2022-08-09T00:01:00.962Z,27.35
2022-08-09T00:04:05.874Z,29.23
2022-08-09T00:06:22.939Z,29.73
2022-08-09T00:08:52.335Z,30.23
2022-08-09T00:11:55.092Z,29.60
2022-08-09T00:14:21.745Z,28.40
2022-08-09T00:16:52.677Z,28.17
2022-08-09T00:19:21.765Z,29.98
2022-08-09T00:21:56.373Z,28.30
2022-08-09T00:24:27.459Z,28.13
2022-08-09T00:26:57.497Z,28.05
2022-08-09T00:29:39.904Z,29.45
2022-08-09T00:32:25.269Z,28.90
2022-08-09T00:34:54.442Z,29.25
2022-08-09T00:37:23.068Z,28.52
2022-08-09T00:40:13.729Z,29.88
2022-08-09T00:44:10.305Z,28.95
2022-08-09T00:45:30.468Z,28.30
2022-08-09T00:48:06.339Z,29.13
2022-08-09T00:50:37.896Z,27.83
2022-08-09T00:53:08.822Z,30.25
2022-08-09T00:56:04.693Z,29.52
2022-08-09T00:58:30.547Z,28.25
2022-08-09T01:01:00.735Z,26.85
2022-08-09T01:03:46.800Z,29.08
2022-08-09T01:06:53.433Z,28.95
2022-08-09T01:09:26.477Z,30.88
2022-08-09T01:12:13.756Z,30.70
2022-08-09T01:14:57.005Z,29.45
2022-08-09T01:17:34.573Z,28.55
2022-08-09T01:20:09.548Z,29.23
2022-08-09T01:24:00.747Z,30.48
2022-08-09T01:26:09.851Z,28.25
2022-08-09T01:28:45.403Z,27.70
2022-08-09T01:32:28.189Z,28.27
2022-08-09T01:34:09.378Z,28.60
2022-08-09T01:36:40.133Z,29.15
2022-08-09T01:39:09.215Z,28.27
2022-08-09T01:41:57.246Z,29.83
2022-08-09T01:44:32.036Z,30.27
2022-08-09T01:47:02.263Z,30.15
2022-08-09T01:49:39.081Z,28.92
2022-08-09T01:52:15.414Z,27.98
2022-08-09T01:54:48.520Z,27.23
2022-08-09T01:57:20.509Z,26.40
2022-08-09T01:59:53.704Z,25.63
2022-08-09T02:02:32.176Z,26.60
2022-08-09T02:05:05.632Z,27.77
2022-08-09T02:08:40.977Z,27.38
2022-08-09T02:10:38.508Z,26.83
2022-08-09T02:13:11.214Z,26.67
2022-08-09T02:15:49.439Z,24.33
2022-08-09T02:18:23.854Z,28.15
2022-08-09T02:20:57.107Z,26.35
2022-08-09T02:23:40.222Z,27.20
2022-08-09T02:26:26.776Z,27.90
2022-08-09T02:29:00.425Z,29.50
2022-08-09T02:31:35.454Z,29.33
2022-08-09T02:34:26.007Z,26.90
2022-08-09T02:37:07.215Z,27.80
2022-08-09T02:39:45.202Z,27.08
2022-08-09T02:42:24.828Z,25.95
2022-08-09T02:45:06.732Z,28.23
2022-08-09T02:47:57.968Z,29.17
2022-08-09T02:50:32.374Z,26.90
2022-08-09T02:53:08.356Z,27.90
2022-08-09T02:55:46.246Z,28.05
2022-08-09T02:58:36.876Z,27.38
2022-08-09T03:01:10.642Z,26.15
2022-08-09T03:04:17.231Z,27.35
2022-08-09T03:06:32.950Z,28.65
2022-08-09T03:09:03.023Z,29.13
2022-08-09T03:12:05.470Z,29.95
2022-08-09T03:14:28.289Z,29.98
2022-08-09T03:16:58.724Z,27.38
2022-08-09T03:19:58.002Z,28.33
2022-08-09T03:22:25.689Z,26.70
2022-08-09T03:25:06.186Z,28.80
2022-08-09T03:27:52.016Z,29.33
2022-08-09T03:30:29.991Z,29.58
2022-08-09T03:33:17.168Z,29.63
2022-08-09T03:36:13.142Z,30.48
2022-08-09T03:38:42.145Z,32.00
2022-08-09T03:41:14.791Z,31.10
2022-08-09T03:44:03.964Z,30.52
2022-08-09T03:46:36.658Z,31.27
2022-08-09T03:49:08.957Z,29.73
2022-08-09T03:51:43.974Z,30.55
2022-08-09T03:54:29.198Z,33.45
2022-08-09T03:57:00.675Z,35.05
2022-08-09T03:59:52.927Z,39.28
2022-08-09T04:02:26.137Z,36.60
2022-08-09T04:04:57.034Z,36.25
2022-08-09T04:07:33.638Z,41.67
2022-08-09T04:10:28.823Z,39.90
2022-08-09T04:13:03.977Z,39.85
2022-08-09T04:16:17.314Z,38.38
2022-08-09T04:18:22.326Z,36.25
2022-08-09T04:20:53.755Z,35.72
2022-08-09T04:23:25.724Z,39.08
2022-08-09T04:25:54.952Z,34.90
2022-08-09T04:28:33.484Z,36.55
2022-08-09T04:31:13.012Z,35.88
2022-08-09T04:33:47.508Z,32.53
2022-08-09T04:36:24.435Z,30.27
2022-08-09T04:38:55.420Z,29.75
2022-08-09T04:41:33.038Z,28.45
2022-08-09T04:44:06.959Z,27.75
2022-08-09T04:46:59.351Z,28.38
2022-08-09T04:49:52.863Z,27.85
2022-08-09T04:52:32.561Z,27.70
2022-08-09T04:55:04.159Z,27.58
2022-08-09T04:57:58.481Z,27.35
2022-08-09T05:00:31.945Z,34.38
2022-08-09T05:03:30.037Z,37.78
2022-08-09T05:06:06.669Z,36.70
2022-08-09T05:08:36.755Z,36.70
2022-08-09T05:11:08.941Z,35.20
2022-08-09T05:13:38.790Z,37.28
2022-08-09T05:16:08.627Z,34.03
2022-08-09T05:18:57.529Z,32.75
2022-08-09T05:21:29.625Z,35.83
2022-08-09T05:24:01.360Z,33.38
2022-08-09T05:26:36.990Z,34.13
2022-08-09T05:29:22.092Z,31.00
2022-08-09T05:31:57.355Z,33.85
2022-08-09T05:34:31.155Z,34.63
2022-08-09T05:37:06.071Z,33.03
2022-08-09T05:39:43.480Z,33.20
2022-08-09T05:42:17.273Z,35.67
2022-08-09T05:44:52.176Z,33.10
2022-08-09T05:47:22.629Z,37.50
2022-08-09T05:50:29.895Z,37.00
2022-08-09T05:52:41.851Z,34.22
2022-08-09T05:55:18.266Z,33.80
2022-08-09T05:57:57.604Z,35.65
2022-08-09T06:00:29.084Z,36.42
2022-08-09T06:02:59.007Z,35.65
2022-08-09T06:05:31.031Z,36.72
2022-08-09T06:08:18.917Z,32.88
2022-08-09T06:10:49.809Z,36.70
2022-08-09T06:13:20.487Z,38.42
2022-08-09T06:15:51.367Z,38.42
2022-08-09T06:18:23.844Z,36.33
2022-08-09T06:20:54.702Z,38.60
2022-08-09T06:23:57.995Z,37.13
2022-08-09T06:26:21.233Z,39.47
2022-08-09T06:29:00.368Z,39.50
2022-08-09T06:31:31.600Z,38.53
2022-08-09T06:34:09.590Z,34.47
2022-08-09T06:36:43.834Z,35.72
2022-08-09T06:39:13.620Z,37.47
2022-08-09T06:42:08.959Z,39.70
2022-08-09T06:44:34.649Z,37.85
2022-08-09T06:47:04.444Z,35.45
2022-08-09T06:49:52.385Z,36.88
2022-08-09T06:52:26.251Z,37.50
2022-08-09T06:54:55.203Z,37.75
2022-08-09T06:57:25.831Z,39.10
2022-08-09T07:00:54.788Z,37.55
2022-08-09T07:03:06.128Z,34.85
2022-08-09T07:05:53.746Z,35.58
2022-08-09T07:08:24.710Z,35.92
2022-08-09T07:10:53.863Z,37.50
2022-08-09T07:13:27.943Z,35.33
2022-08-09T07:16:41.707Z,36.80
2022-08-09T07:18:49.979Z,41.58
2022-08-09T07:21:18.947Z,33.88
2022-08-09T07:23:58.136Z,36.17
2022-08-09T07:26:27.612Z,35.17
2022-08-09T07:29:08.200Z,34.78
2022-08-09T07:31:45.373Z,35.03
2022-08-09T07:34:20.644Z,35.42
2022-08-09T07:36:50.403Z,35.67
2022-08-09T07:39:40.492Z,35.75
2022-08-09T07:42:11.588Z,34.20
2022-08-09T07:44:51.769Z,34.00
2022-08-09T07:47:24.423Z,33.25
2022-08-09T07:50:04.411Z,33.88
2022-08-09T07:52:38.514Z,35.72
2022-08-09T07:55:10.005Z,38.17
2022-08-09T07:57:47.019Z,33.33
2022-08-09T08:00:20.485Z,36.42
2022-08-09T08:03:08.384Z,35.78
2022-08-09T08:05:57.641Z,35.40
2022-08-09T08:09:01.897Z,35.78
2022-08-09T08:12:24.034Z,39.72
2022-08-09T08:14:06.463Z,37.60
2022-08-09T08:16:35.276Z,38.03
2022-08-09T08:19:09.741Z,38.92
2022-08-09T08:21:39.590Z,38.80
2022-08-09T08:24:12.232Z,35.50
2022-08-09T08:26:56.254Z,36.75
2022-08-09T08:29:28.108Z,34.58
2022-08-09T08:32:04.302Z,36.10
2022-08-09T08:34:36.595Z,35.75
2022-08-09T08:37:05.781Z,33.30
2022-08-09T08:39:43.500Z,34.85
2022-08-09T08:42:13.698Z,34.95
2022-08-09T08:44:46.339Z,33.78
2022-08-09T08:47:16.433Z,36.28
2022-08-09T08:49:49.312Z,32.33
2022-08-09T08:52:52.653Z,38.58
2022-08-09T08:55:10.401Z,35.58
2022-08-09T08:57:39.236Z,35.92
2022-08-09T09:00:16.976Z,38.28
2022-08-09T09:03:12.374Z,38.70
2022-08-09T09:05:58.618Z,35.60
2022-08-09T09:08:37.705Z,33.75
2022-08-09T09:11:17.887Z,38.33
2022-08-09T09:13:56.743Z,40.30
2022-08-09T09:16:30.855Z,43.67
2022-08-09T09:19:37.275Z,38.72
2022-08-09T09:22:26.612Z,34.13
2022-08-09T09:26:02.378Z,34.28
2022-08-09T09:28:06.344Z,33.15
2022-08-09T09:30:52.868Z,28.35
2022-08-09T09:33:21.987Z,33.35
2022-08-09T09:36:02.626Z,30.00
2022-08-09T09:38:48.248Z,34.83
2022-08-09T09:41:32.737Z,30.95
2022-08-09T09:44:11.470Z,29.23
2022-08-09T09:46:50.899Z,39.90
2022-08-09T09:49:56.534Z,37.13
2022-08-09T09:52:16.266Z,38.20
2022-08-09T09:54:48.691Z,27.08
2022-08-09T09:58:02.503Z,27.35
2022-08-09T10:00:24.919Z,24.50
2022-08-09T10:02:55.638Z,28.08
2022-08-09T10:05:27.065Z,24.38
2022-08-09T10:08:27.927Z,22.58
2022-08-09T10:10:58.665Z,19.92
2022-08-09T10:13:43.315Z,16.80
2022-08-09T10:16:57.723Z,15.65
2022-08-09T10:19:06.302Z,16.80
2022-08-09T10:21:48.769Z,16.15
2022-08-09T10:24:31.386Z,15.27
2022-08-09T10:27:10.347Z,14.70
2022-08-09T10:30:49.435Z,15.15
2022-08-09T10:32:42.253Z,14.60
2022-08-09T10:35:13.320Z,13.15
2022-08-09T10:37:42.192Z,12.82
2022-08-09T10:40:35.208Z,13.10
2022-08-09T10:43:03.723Z,13.52
2022-08-09T10:45:35.539Z,11.57
2022-08-09T10:48:26.323Z,11.60
2022-08-09T10:51:09.640Z,12.55
2022-08-09T10:53:54.816Z,13.00
2022-08-09T10:56:26.892Z,12.45
2022-08-09T10:58:58.799Z,11.85
2022-08-09T11:03:14.429Z,12.77
2022-08-09T11:04:32.639Z,12.52
2022-08-09T11:07:27.767Z,12.68
2022-08-09T11:10:16.507Z,11.48
2022-08-09T11:13:49.522Z,13.93
2022-08-09T11:16:37.315Z,12.05
2022-08-09T11:19:11.349Z,14.10
2022-08-09T11:21:56.851Z,12.88
2022-08-09T11:25:04.707Z,12.70
2022-08-09T11:28:03.692Z,12.68
2022-08-09T11:30:34.637Z,13.50
2022-08-09T11:33:13.149Z,13.13
2022-08-09T11:35:50.168Z,12.65
2022-08-09T11:38:32.592Z,13.15
2022-08-09T11:41:05.133Z,13.88
2022-08-09T11:43:42.301Z,11.50
2022-08-09T11:46:11.120Z,11.77
2022-08-09T11:48:52.299Z,13.15
2022-08-09T11:53:00.836Z,13.05
2022-08-09T11:54:29.032Z,11.48
2022-08-09T11:57:47.363Z,12.20
2022-08-09T12:00:30.783Z,16.20
2022-08-09T12:03:50.254Z,18.70
2022-08-09T12:05:52.882Z,47.70
2022-08-09T12:08:24.039Z,33.30
2022-08-09T12:10:55.654Z,19.45
2022-08-09T12:14:07.941Z,17.02
2022-08-09T12:16:37.383Z,16.52
2022-08-09T12:19:09.670Z,18.73
2022-08-09T12:21:50.720Z,30.88
2022-08-09T12:24:25.654Z,25.30
2022-08-09T12:29:13.811Z,26.65
2022-08-09T12:30:01.771Z,14.40
2022-08-09T12:32:44.235Z,15.98
2022-08-09T12:35:19.153Z,11.50
2022-08-09T12:37:51.823Z,12.95
2022-08-09T12:40:23.385Z,23.00
2022-08-09T12:42:54.165Z,10.98
2022-08-09T12:45:33.707Z,11.93
2022-08-09T12:48:04.597Z,9.88
2022-08-09T12:50:35.796Z,9.68
2022-08-09T12:53:09.651Z,10.32
2022-08-09T12:56:15.156Z,13.90
2022-08-09T12:58:42.499Z,37.65
2022-08-09T13:01:26.512Z,32.10
2022-08-09T13:03:59.718Z,9.63
2022-08-09T13:06:34.044Z,9.90
2022-08-09T13:09:09.060Z,9.43
2022-08-09T13:11:42.266Z,8.73
2022-08-09T13:14:40.942Z,8.13
2022-08-09T13:17:08.594Z,31.20
2022-08-09T13:20:09.040Z,9.20
2022-08-09T13:22:35.195Z,9.07
2022-08-09T13:25:11.899Z,16.20
2022-08-09T13:27:48.603Z,26.35
2022-08-09T13:30:50.819Z,19.88
2022-08-09T13:33:23.993Z,10.15
2022-08-09T13:36:41.467Z,8.68
2022-08-09T13:38:57.506Z,8.85
2022-08-09T13:41:58.353Z,10.23
2022-08-09T13:44:17.881Z,28.50
2022-08-09T13:47:29.789Z,31.58
2022-08-09T13:49:55.787Z,20.88
2022-08-09T13:52:26.027Z,9.38
2022-08-09T13:55:00.115Z,9.48
2022-08-09T13:57:39.317Z,9.02
2022-08-09T14:00:12.985Z,8.95
2022-08-09T14:03:03.222Z,11.75
2022-08-09T14:06:00.034Z,11.18
2022-08-09T14:08:21.631Z,7.65
2022-08-09T14:10:52.883Z,7.38
2022-08-09T14:14:15.945Z,8.80
2022-08-09T14:16:16.195Z,8.50
2022-08-09T14:18:49.822Z,13.35
2022-08-09T14:21:22.493Z,23.60
2022-08-09T14:23:55.263Z,7.85
2022-08-09T14:26:25.394Z,8.50
2022-08-09T14:29:07.953Z,8.90
2022-08-09T14:31:54.759Z,7.65
2022-08-09T14:34:31.134Z,8.77
2022-08-09T14:37:07.428Z,7.82
2022-08-09T14:39:45.562Z,7.13
2022-08-09T14:42:31.670Z,9.70
2022-08-09T14:46:58.524Z,7.70
2022-08-09T14:47:58.041Z,7.93
2022-08-09T14:50:32.772Z,12.88
2022-08-09T14:53:02.610Z,8.93
2022-08-09T14:55:32.787Z,7.68
2022-08-09T14:58:03.644Z,7.75
2022-08-09T15:00:36.486Z,9.10
2022-08-09T15:03:07.032Z,7.53
2022-08-09T15:05:36.503Z,7.40
2022-08-09T15:08:05.892Z,7.50
2022-08-09T15:10:39.859Z,6.95
2022-08-09T15:13:08.755Z,7.72
2022-08-09T15:15:39.742Z,7.38
2022-08-09T15:18:14.613Z,7.05
2022-08-09T15:21:56.529Z,7.18
2022-08-09T15:24:05.612Z,6.93
2022-08-09T15:26:30.736Z,6.50
2022-08-09T15:29:04.118Z,6.22
2022-08-09T15:31:42.026Z,13.57
2022-08-09T15:34:31.827Z,7.40
2022-08-09T15:37:04.236Z,6.53
2022-08-09T15:39:43.749Z,8.00
2022-08-09T15:42:22.310Z,6.82
2022-08-09T15:44:51.414Z,65.32
2022-08-09T15:47:22.645Z,12.65
2022-08-09T15:50:04.234Z,5.88
2022-08-09T15:52:35.184Z,4.95
2022-08-09T15:55:04.178Z,5.88
2022-08-09T15:57:35.147Z,6.00
2022-08-09T16:00:08.406Z,11.82
2022-08-09T16:02:38.797Z,5.38
2022-08-09T16:05:08.849Z,5.53
2022-08-09T16:07:45.737Z,13.27
2022-08-09T16:10:38.591Z,8.90
2022-08-09T16:13:03.746Z,7.78
2022-08-09T16:16:04.629Z,5.20
2022-08-09T16:18:22.280Z,5.07
2022-08-09T16:20:51.445Z,5.68
2022-08-09T16:23:21.619Z,5.60
2022-08-09T16:25:50.233Z,5.78
2022-08-09T16:28:18.759Z,5.88
2022-08-09T16:30:58.814Z,5.13
2022-08-09T16:33:30.947Z,4.72
2022-08-09T16:36:10.736Z,4.70
2022-08-09T16:38:43.151Z,4.85
2022-08-09T16:41:16.776Z,4.78
2022-08-09T16:43:47.050Z,5.13
2022-08-09T16:46:18.528Z,5.65
2022-08-09T16:48:59.972Z,5.00
2022-08-09T16:51:37.510Z,5.15
2022-08-09T16:54:28.299Z,5.55
2022-08-09T16:56:55.031Z,5.38
2022-08-09T16:59:25.056Z,5.15
2022-08-09T17:01:53.949Z,5.50
2022-08-09T17:04:28.878Z,5.10
2022-08-09T17:08:41.664Z,5.72
2022-08-09T17:09:47.582Z,5.95
2022-08-09T17:12:17.063Z,5.43
2022-08-09T17:14:46.369Z,5.20
2022-08-09T17:17:26.234Z,5.45
2022-08-09T17:20:28.298Z,5.68
2022-08-09T17:22:52.063Z,5.13
2022-08-09T17:25:23.527Z,5.43
2022-08-09T17:27:54.394Z,5.20
2022-08-09T17:30:25.701Z,4.28
2022-08-09T17:33:00.932Z,4.03
2022-08-09T17:35:41.140Z,6.30
2022-08-09T17:38:32.654Z,5.47
2022-08-09T17:41:00.815Z,3.92
2022-08-09T17:43:35.087Z,4.03
2022-08-09T17:46:07.095Z,4.57
2022-08-09T17:48:39.476Z,4.43
2022-08-09T17:51:17.252Z,5.05
2022-08-09T17:53:51.559Z,4.07
2022-08-09T17:56:21.657Z,4.85
2022-08-09T17:58:50.199Z,4.25
2022-08-09T18:01:22.572Z,4.20
2022-08-09T18:03:54.235Z,3.85
2022-08-09T18:06:32.275Z,4.43
2022-08-09T18:09:03.526Z,3.88
2022-08-09T18:12:05.727Z,5.22
2022-08-09T18:14:23.597Z,4.32
2022-08-09T18:16:53.983Z,4.25
2022-08-09T18:20:55.070Z,4.30
2022-08-09T18:22:17.003Z,5.30
2022-08-09T18:24:46.713Z,4.50
2022-08-09T18:27:49.217Z,5.15
2022-08-09T18:30:42.267Z,4.75
2022-08-09T18:32:54.962Z,4.22
2022-08-09T18:35:59.234Z,3.97
2022-08-09T18:38:14.287Z,4.68
2022-08-09T18:40:45.126Z,4.60
2022-08-09T18:43:15.755Z,4.75
2022-08-09T18:46:49.086Z,31.73
2022-08-09T18:48:33.731Z,6.53
2022-08-09T18:51:04.305Z,4.88
2022-08-09T18:53:56.445Z,4.45
2022-08-09T18:56:27.816Z,5.05
2022-08-09T18:58:57.141Z,5.03
2022-08-09T19:01:26.095Z,4.80
2022-08-09T19:04:06.380Z,4.65
2022-08-09T19:06:38.393Z,4.82
2022-08-09T19:09:13.633Z,5.00
2022-08-09T19:11:57.770Z,4.72
2022-08-09T19:14:29.123Z,4.85
2022-08-09T19:16:58.133Z,4.63
2022-08-09T19:19:28.246Z,5.10
2022-08-09T19:22:07.165Z,5.75
2022-08-09T19:25:09.925Z,4.75
2022-08-09T19:27:28.669Z,5.47
2022-08-09T19:30:21.497Z,5.15
2022-08-09T19:32:46.197Z,5.25
2022-08-09T19:35:26.075Z,4.97
2022-08-09T19:37:57.844Z,4.82
2022-08-09T19:40:33.958Z,4.78
2022-08-09T19:43:10.334Z,5.00
2022-08-09T19:45:44.902Z,5.18
2022-08-09T19:48:15.892Z,5.57
2022-08-09T19:51:04.814Z,5.68
2022-08-09T19:53:45.229Z,4.78
2022-08-09T19:56:17.417Z,5.22
2022-08-09T19:59:40.110Z,5.28
2022-08-09T20:01:53.228Z,5.20
2022-08-09T20:04:40.518Z,5.32
2022-08-09T20:07:22.417Z,5.18
2022-08-09T20:09:51.334Z,5.90
2022-08-09T20:12:29.801Z,6.28
2022-08-09T20:16:35.815Z,6.45
2022-08-09T20:17:54.913Z,6.45
2022-08-09T20:20:24.634Z,6.40
2022-08-09T20:22:56.074Z,6.15
2022-08-09T20:25:25.420Z,6.20
2022-08-09T20:27:55.709Z,6.90
2022-08-09T20:30:25.024Z,7.03
2022-08-09T20:32:53.871Z,7.40
2022-08-09T20:35:22.589Z,7.30
2022-08-09T20:38:20.965Z,7.15
2022-08-09T20:40:41.150Z,6.50
2022-08-09T20:43:18.404Z,7.50
2022-08-09T20:45:59.710Z,7.25
2022-08-09T20:48:31.810Z,6.82
2022-08-09T20:51:01.354Z,7.75
2022-08-09T20:53:36.348Z,7.75
2022-08-09T20:56:20.397Z,7.70
2022-08-09T20:58:57.836Z,7.88
2022-08-09T21:01:34.931Z,8.02
2022-08-09T21:05:54.125Z,7.55
2022-08-09T21:07:11.678Z,7.38
2022-08-09T21:09:55.401Z,7.32
2022-08-09T21:15:16.467Z,6.90
2022-08-09T21:18:22.356Z,7.20
2022-08-09T21:20:35.725Z,6.68
2022-08-09T21:23:04.997Z,6.63
2022-08-09T21:25:59.156Z,7.05
2022-08-09T21:28:33.805Z,6.57
2022-08-09T21:31:16.880Z,6.65
2022-08-09T21:33:50.358Z,6.20
2022-08-09T21:36:23.210Z,6.57
2022-08-09T21:38:57.782Z,6.53
2022-08-09T21:42:05.178Z,7.13
2022-08-09T21:44:34.404Z,6.53
2022-08-09T21:47:08.687Z,6.70
2022-08-09T21:49:40.246Z,6.82
2022-08-09T21:52:14.942Z,7.03
2022-08-09T21:55:03.132Z,6.97
2022-08-09T21:57:39.513Z,7.55
2022-08-09T22:00:25.968Z,7.03
2022-08-09T22:02:59.497Z,6.60
2022-08-09T22:05:36.109Z,6.90
2022-08-09T22:08:13.842Z,6.90
2022-08-09T22:11:50.228Z,7.72
2022-08-09T22:13:34.936Z,8.00
2022-08-09T22:16:07.850Z,7.40
2022-08-09T22:18:54.484Z,7.65
2022-08-09T22:21:27.377Z,6.72
2022-08-09T22:24:16.925Z,7.45
2022-08-09T22:26:51.045Z,7.30
2022-08-09T22:29:26.814Z,7.00
2022-08-09T22:32:01.246Z,8.07
2022-08-09T22:34:31.238Z,7.97
2022-08-09T22:37:00.483Z,8.43
2022-08-09T22:39:55.781Z,7.75
2022-08-09T22:42:22.692Z,7.95
2022-08-09T22:45:00.141Z,8.25
2022-08-09T22:48:16.013Z,8.48
2022-08-09T22:50:33.315Z,8.40
2022-08-09T22:53:03.629Z,8.45
2022-08-09T22:56:06.249Z,8.20
2022-08-09T22:58:33.150Z,8.35
2022-08-09T23:01:03.568Z,8.52
2022-08-09T23:04:03.866Z,8.45
2022-08-09T23:06:29.961Z,8.85
2022-08-09T23:09:06.164Z,7.95
2022-08-09T23:11:35.601Z,7.80
2022-08-09T23:14:10.261Z,8.07
2022-08-09T23:16:46.532Z,7.72
2022-08-09T23:19:15.120Z,8.43
2022-08-09T23:21:44.986Z,8.45
2022-08-09T23:24:13.771Z,8.45
2022-08-09T23:26:42.642Z,8.48
2022-08-09T23:29:13.947Z,7.93
2022-08-09T23:31:43.137Z,7.70
2022-08-09T23:34:11.905Z,7.20
2022-08-09T23:36:41.095Z,8.23
2022-08-09T23:39:11.113Z,7.95
2022-08-09T23:41:39.638Z,8.65
2022-08-09T23:44:08.186Z,8.48
2022-08-09T23:46:36.710Z,8.05
2022-08-09T23:49:05.500Z,7.97
2022-08-09T23:51:34.118Z,7.78
2022-08-09T23:54:03.534Z,7.60
2022-08-09T23:56:52.394Z,7.68
2022-08-09T23:59:24.486Z,8.60
